createdAt,value
2023-02-14T00:03:33.061Z,15.07
2023-02-14T00:08:35.099Z,15.00
2023-02-14T00:13:36.934Z,15.88
2023-02-14T00:18:56.951Z,16.35
2023-02-14T00:23:58.914Z,16.73
2023-02-14T00:29:00.777Z,17.67
2023-02-14T00:34:03.186Z,16.00
2023-02-14T00:39:06.378Z,16.90
2023-02-14T00:44:09.316Z,17.27
2023-02-14T00:49:11.293Z,16.83
2023-02-14T00:54:13.194Z,17.02
2023-02-14T00:59:15.120Z,6.97
2023-02-14T01:04:17.295Z,10.27
2023-02-14T01:09:20.697Z,12.63
2023-02-14T01:14:22.565Z,11.35
2023-02-14T01:19:24.898Z,8.02
2023-02-14T01:24:26.957Z,6.75
2023-02-14T01:29:28.858Z,8.20
2023-02-14T01:34:30.728Z,10.40
2023-02-14T01:39:32.612Z,11.55
2023-02-14T01:44:37.379Z,9.50
2023-02-14T01:49:49.494Z,9.60
2023-02-14T01:55:00.979Z,9.77
2023-02-14T02:05:23.941Z,7.22
2023-02-14T02:10:26.560Z,6.47
2023-02-14T02:15:35.318Z,7.25
2023-02-14T02:21:02.098Z,8.95
2023-02-14T02:26:22.439Z,10.45
2023-02-14T02:32:06.377Z,10.32
2023-02-14T02:37:44.626Z,9.18
2023-02-14T02:43:22.124Z,9.32
2023-02-14T02:48:31.237Z,9.93
2023-02-14T02:54:03.030Z,10.77
2023-02-14T02:59:20.794Z,10.65
2023-02-14T03:04:46.796Z,10.05
2023-02-14T03:09:53.088Z,11.73
2023-02-14T03:15:39.137Z,11.57
2023-02-14T03:20:55.300Z,10.80
2023-02-14T03:26:16.657Z,11.20
2023-02-14T03:31:27.949Z,11.65
2023-02-14T03:36:41.344Z,11.88
2023-02-14T03:41:50.806Z,12.85
2023-02-14T03:47:15.282Z,12.82
2023-02-14T03:52:18.545Z,13.90
2023-02-14T03:57:32.417Z,11.38
2023-02-14T04:02:39.254Z,12.77
2023-02-14T04:07:50.748Z,12.43
2023-02-14T04:12:54.054Z,12.10
2023-02-14T04:18:14.552Z,14.18
2023-02-14T04:28:18.124Z,13.25
2023-02-14T04:33:19.945Z,12.98
2023-02-14T04:38:21.866Z,11.57
2023-02-14T04:43:23.706Z,13.35
2023-02-14T04:48:25.538Z,12.25
2023-02-14T04:53:27.417Z,13.45
2023-02-14T04:58:29.259Z,13.27
2023-02-14T05:03:31.085Z,11.27
2023-02-14T05:08:32.933Z,13.35
2023-02-14T05:13:34.801Z,10.52
2023-02-14T05:18:36.670Z,11.38
2023-02-14T05:23:38.626Z,12.45
2023-02-14T05:28:41.191Z,12.80
2023-02-14T05:33:43.039Z,16.30
2023-02-14T05:38:44.915Z,16.65
2023-02-14T05:43:46.784Z,16.70
2023-02-14T05:48:48.708Z,15.63
2023-02-14T05:53:50.542Z,18.40
2023-02-14T05:58:52.414Z,18.45
2023-02-14T06:03:54.270Z,14.75
2023-02-14T06:08:56.142Z,15.20
2023-02-14T06:13:57.978Z,16.02
2023-02-14T06:18:59.796Z,14.07
2023-02-14T06:24:02.186Z,12.40
2023-02-14T06:29:04.557Z,11.45
2023-02-14T06:34:06.414Z,13.07
2023-02-14T06:39:08.335Z,11.90
2023-02-14T06:44:10.610Z,13.13
2023-02-14T06:49:12.561Z,14.57
2023-02-14T06:54:14.399Z,13.75
2023-02-14T06:59:16.294Z,12.95
2023-02-14T07:04:18.697Z,12.23
2023-02-14T07:09:20.534Z,11.80
2023-02-14T07:14:22.538Z,12.18
2023-02-14T07:19:24.634Z,10.55
2023-02-14T07:24:26.762Z,10.43
2023-02-14T07:29:28.600Z,10.13
2023-02-14T07:34:30.548Z,10.77
2023-02-14T07:39:32.653Z,9.07
2023-02-14T07:44:35.037Z,8.75
2023-02-14T07:49:37.225Z,9.75
2023-02-14T07:54:39.039Z,8.55
2023-02-14T07:59:40.892Z,10.05
2023-02-14T08:04:42.753Z,10.48
2023-02-14T08:09:44.645Z,10.30
2023-02-14T08:14:46.515Z,9.73
2023-02-14T08:19:48.351Z,10.15
2023-02-14T08:24:50.191Z,10.77
2023-02-14T08:29:52.016Z,9.93
2023-02-14T08:34:53.889Z,9.68
2023-02-14T08:39:55.707Z,9.00
2023-02-14T08:44:57.593Z,10.93
2023-02-14T08:49:59.505Z,10.00
2023-02-14T08:55:02.911Z,10.32
2023-02-14T09:00:06.794Z,10.52
2023-02-14T09:05:10.797Z,9.43
2023-02-14T09:10:13.268Z,11.75
2023-02-14T09:15:15.697Z,9.52
2023-02-14T09:20:21.151Z,11.43
2023-02-14T09:25:23.043Z,10.20
2023-02-14T09:30:24.996Z,11.50
2023-02-14T09:35:26.896Z,11.10
2023-02-14T09:40:29.034Z,9.57
2023-02-14T09:45:33.138Z,8.32
2023-02-14T09:50:42.150Z,9.73
2023-02-14T09:55:59.699Z,10.43
2023-02-14T10:01:16.763Z,10.93
2023-02-14T10:06:36.684Z,11.65
2023-02-14T10:11:40.689Z,7.53
2023-02-14T10:16:57.925Z,9.95
2023-02-14T10:22:04.052Z,9.05
2023-02-14T10:27:46.372Z,12.13
2023-02-14T10:33:04.551Z,11.88
2023-02-14T10:38:17.514Z,10.80
2023-02-14T10:43:28.310Z,10.15
2023-02-14T10:48:57.947Z,10.27
2023-02-14T10:54:02.564Z,9.73
2023-02-14T10:59:30.652Z,8.80
2023-02-14T11:04:33.073Z,8.85
2023-02-14T11:09:34.877Z,8.60
2023-02-14T11:14:38.941Z,9.30
2023-02-14T11:19:40.812Z,8.52
2023-02-14T11:24:42.632Z,9.40
2023-02-14T11:29:48.290Z,7.97
2023-02-14T11:35:00.558Z,8.48
2023-02-14T11:40:03.981Z,8.82
2023-02-14T11:45:06.536Z,8.65
2023-02-14T11:50:24.856Z,7.85
2023-02-14T11:55:30.224Z,7.57
2023-02-14T12:00:32.699Z,7.03
2023-02-14T12:05:45.201Z,7.50
2023-02-14T12:11:02.283Z,8.40
2023-02-14T12:16:04.421Z,7.25
2023-02-14T12:21:30.910Z,7.38
2023-02-14T12:26:40.766Z,7.28
2023-02-14T12:31:44.374Z,7.93
2023-02-14T12:37:33.750Z,8.10
2023-02-14T12:43:07.350Z,9.15
2023-02-14T12:48:55.347Z,9.88
2023-02-14T12:54:03.552Z,9.88
2023-02-14T12:59:24.936Z,9.23
2023-02-14T13:04:48.402Z,9.68
2023-02-14T13:09:50.175Z,9.45
2023-02-14T13:15:07.431Z,10.15
2023-02-14T13:20:34.332Z,10.18
2023-02-14T13:25:42.844Z,8.75
2023-02-14T13:30:45.144Z,9.52
2023-02-14T13:35:47.989Z,9.35
2023-02-14T13:40:50.290Z,8.55
2023-02-14T13:45:54.652Z,9.25
2023-02-14T13:51:03.372Z,8.30
2023-02-14T13:56:17.413Z,8.07
2023-02-14T14:01:32.867Z,8.60
2023-02-14T14:07:13.596Z,8.57
2023-02-14T14:12:27.568Z,9.02
2023-02-14T14:17:29.541Z,10.02
2023-02-14T14:22:31.660Z,9.32
2023-02-14T14:27:42.708Z,11.57
2023-02-14T14:32:45.505Z,13.35
2023-02-14T14:37:59.050Z,13.57
2023-02-14T14:43:07.231Z,13.63
2023-02-14T14:48:12.988Z,14.75
2023-02-14T14:53:45.644Z,13.05
2023-02-14T14:58:47.966Z,15.70
2023-02-14T15:03:50.040Z,14.38
2023-02-14T15:08:52.009Z,14.82
2023-02-14T15:13:54.008Z,14.23
2023-02-14T15:19:07.180Z,15.20
2023-02-14T15:24:14.928Z,14.65
2023-02-14T15:29:34.622Z,14.73
2023-02-14T15:34:36.794Z,16.53
2023-02-14T15:39:49.496Z,16.48
2023-02-14T15:45:11.561Z,15.00
2023-02-14T15:50:19.822Z,16.70
2023-02-14T15:55:26.835Z,18.60
2023-02-14T16:00:29.296Z,18.13
2023-02-14T16:05:31.438Z,16.73
2023-02-14T16:10:37.779Z,17.20
2023-02-14T16:15:55.862Z,16.73
2023-02-14T16:21:18.600Z,19.90
2023-02-14T16:26:20.373Z,18.80
2023-02-14T16:31:22.687Z,19.70
2023-02-14T16:36:33.306Z,19.52
2023-02-14T16:41:35.269Z,24.33
2023-02-14T16:46:37.179Z,20.65
2023-02-14T16:51:43.015Z,20.77
2023-02-14T16:57:02.520Z,22.42
2023-02-14T17:02:04.349Z,21.67
2023-02-14T17:07:06.896Z,19.55
2023-02-14T17:12:16.501Z,20.20
2023-02-14T17:17:18.590Z,18.60
2023-02-14T17:22:20.744Z,18.48
2023-02-14T17:27:22.543Z,20.10
2023-02-14T17:32:24.450Z,22.88
2023-02-14T17:37:26.319Z,23.63
2023-02-14T17:42:28.337Z,24.13
2023-02-14T17:47:30.317Z,22.15
2023-02-14T17:52:32.336Z,23.35
2023-02-14T17:57:35.089Z,24.92
2023-02-14T18:02:37.325Z,29.23
2023-02-14T18:07:40.036Z,29.55
2023-02-14T18:12:42.072Z,27.52
2023-02-14T18:17:44.000Z,27.90
2023-02-14T18:22:45.916Z,26.23
2023-02-14T18:27:48.930Z,25.88
2023-02-14T18:32:50.872Z,25.05
2023-02-14T18:37:52.821Z,22.83
2023-02-14T18:42:55.217Z,23.10
2023-02-14T18:47:57.041Z,23.63
2023-02-14T18:52:59.179Z,24.67
2023-02-14T18:58:00.966Z,21.80
2023-02-14T19:03:02.849Z,22.45
2023-02-14T19:08:05.787Z,22.98
2023-02-14T19:13:07.607Z,23.17
2023-02-14T19:18:09.434Z,20.92
2023-02-14T19:23:11.272Z,22.13
2023-02-14T19:28:13.619Z,21.58
2023-02-14T19:33:15.448Z,20.55
2023-02-14T19:38:17.666Z,22.17
2023-02-14T19:43:19.537Z,21.00
2023-02-14T19:48:21.564Z,23.45
2023-02-14T19:53:23.405Z,20.88
2023-02-14T19:58:26.165Z,22.30
2023-02-14T20:03:28.214Z,22.40
2023-02-14T20:08:30.047Z,24.92
2023-02-14T20:13:31.880Z,25.25
2023-02-14T20:18:34.779Z,25.55
2023-02-14T20:23:36.628Z,32.60
2023-02-14T20:28:38.480Z,28.27
2023-02-14T20:33:41.380Z,23.17
2023-02-14T20:38:43.241Z,22.67
2023-02-14T20:43:45.098Z,20.88
2023-02-14T20:48:46.979Z,21.77
2023-02-14T20:53:48.877Z,19.33
2023-02-14T20:58:50.978Z,16.95
2023-02-14T21:03:55.278Z,16.52
2023-02-14T21:08:57.903Z,16.63
2023-02-14T21:14:01.175Z,16.85
2023-02-14T21:19:04.406Z,17.38
2023-02-14T21:24:14.858Z,16.88
2023-02-14T21:29:16.794Z,16.88
2023-02-14T21:34:18.606Z,16.20
2023-02-14T21:39:25.512Z,15.57
2023-02-14T21:44:46.404Z,15.75
2023-02-14T21:50:07.536Z,14.75
2023-02-14T21:55:09.432Z,16.73
2023-02-14T22:00:12.232Z,12.98
2023-02-14T22:05:14.065Z,13.82
2023-02-14T22:10:16.039Z,13.27
2023-02-14T22:15:18.439Z,14.43
2023-02-14T22:20:20.512Z,14.93
2023-02-14T22:25:22.864Z,14.18
2023-02-14T22:30:25.015Z,15.05
2023-02-14T22:35:27.279Z,14.05
2023-02-14T22:40:29.131Z,14.15
2023-02-14T22:45:30.981Z,14.07
2023-02-14T22:50:35.596Z,12.27
2023-02-14T22:55:37.521Z,12.82
2023-02-14T23:00:39.351Z,13.40
2023-02-14T23:05:41.133Z,12.30
2023-02-14T23:10:43.672Z,13.30
2023-02-14T23:16:04.309Z,12.65
2023-02-14T23:21:33.374Z,12.82
2023-02-14T23:26:37.282Z,10.70
2023-02-14T23:31:39.531Z,12.65
2023-02-14T23:36:41.478Z,12.27
2023-02-14T23:41:52.229Z,12.05
2023-02-14T23:46:56.746Z,12.98
2023-02-14T23:51:58.632Z,13.30
2023-02-14T23:57:00.656Z,16.20
